Архив погоды в Охотске

Метеограмма Охотск
Понедельник, 17 Июня
Время местн. Темп Ветер Видим Явления Облачность нижн/средн/верх Атм. давл. Влжн Точка росы ВНГО R Сост. почвы Tg s
Напр Скр Прв ур.ст ур.м изм
10:00 +6.1° Ю-В 2 - 10 км слабый ливневый дождь преимущественно облачно 761 761 +0.5 91% +4.8° 600 м - - - -
07:00 +5.7° Ю 2 - 50 км ливневый дождь преимущественно облачно 760 761 +0.5 93% +4.7° 600 м 1 Влажная (без луж) - -
04:00 +5.2° Ю,Ю-В 4 - 4 км дымка облачно 760 760 +0.3 97% +4.7° 600 м - - - -
01:00 +5.5° Ю,Ю-В 4 - 20 км - облачно 760 760 -0.2 96% +4.9° 600 м - - - -
Воскресенье, 16 Июня
Время местн. Темп Ветер Видим Явления Облачность нижн/средн/верх Атм. давл. Влжн Точка росы ВНГО R Сост. почвы Tg s
Напр Скр Прв ур.ст ур.м изм
22:00 +5.6° Ю 2 - более 50 км небо без изменений {ливневые осадки} преимущественно облачно 760 760 +0.1 95% +4.9° 600 м - - - -
19:00 +6.8° З,Ю-З 1 - 20 км - преимущественно облачно 760 760 -0.7 93% +5.8° 600 м 0.9 - - -
16:00 +8.2° З,С-З 2 - 20 км ливневый дождь облачно 761 761 -0.7 85% +5.9° 600 м - - - -
13:00 +6.9° Ю,Ю-В 5 - 10 км слабый ливневый дождь облачно 761 762 +0.1 85% +4.6° 600 м - - - -
10:00 +11.4° С 4 - 50 км - преимущественно облачно 761 762 -1.2 65% +5° 600 м - - - -
07:00 +5.9° С 5 - 50 км - преимущественно облачно 762 763 -1.4 83% +3.3° 600 м 0 Сухая (без трещин) - -
04:00 - +4.9° С 3 - - - - 764 764 -1.1 83% +2.3° - - - - -
01:00 +5.6° С 2 - 50 км - преимущественно облачно 765 765 -0.8 82% +2.8° 600 м - - - -
Суббота, 15 Июня
Время местн. Темп Ветер Видим Явления Облачность нижн/средн/верх Атм. давл. Влжн Точка росы ВНГО R Сост. почвы Tg s
Напр Скр Прв ур.ст ур.м изм
22:00 +5.9° З 2 - 50 км - облачно 766 766 0 82% +3.1° 600 м - - - -
19:00 +5.9° Ю 1 - 20 км - облачно 766 766 +0.1 88% +4.1° 600 м 0 - - -
16:00 +6.2° Ю,Ю-З 2 - 50 км - преимущественно облачно 766 766 -0.5 82% +3.3° 600 м - - - -
13:00 +5.9° Ю-З 3 - 20 км - облачно 766 767 +0.1 81% +2.9° 600 м - - - -
10:00 +5.8° З,Ю-З 3 - 20 км - преимущественно облачно 767 767 +0.5 81% +2.8° 600 м - - - -
07:00 +4.9° З 2 - 50 км - облачно 766 767 +0.5 83% +2.3° 600 м 0 Сухая (без трещин) - -
04:00 +5.2° Ю-З 4 - 50 км - преимущественно облачно 766 766 +0.1 82% +2.4° 600 м - - - -
01:00 +5.6° З 3 - 50 км - преимущественно облачно 766 766 +0.6 85% +3.2° 600 м - - - -
Пятница, 14 Июня
Время местн. Темп Ветер Видим Явления Облачность нижн/средн/верх Атм. давл. Влжн Точка росы ВНГО R Сост. почвы Tg s
Напр Скр Прв ур.ст ур.м изм
22:00 +6.9° З,Ю-З 4 - 50 км - преимущественно облачно 765 765 +0.4 83% +4.3° 600 м - - - -
19:00 +7.9° Ю-З 5 - 50 км - преимущественно облачно 765 765 +0.1 77% +4.1° 600 м 0 - - -
16:00 +9.3° Ю,Ю-З 5 - 50 км - облачно с прояснениями 765 765 -0.6 69% +3.9° 1 км - - - -
13:00 +7.8° Ю-З 2 - более 50 км - преимущественно облачно 765 766 -0.2 74% +3.5° 600 м - - - -
10:00 +7.6° З 5 - 50 км - облачно 765 766 +0.1 77% +3.9° 600 м - - - -
07:00 +6.5° З 2 - 50 км - облачно 765 766 +0.4 85% +4.2° 600 м 0 Влажная (без луж) - -